createdAt,value
2022-09-15T00:00:11.422Z,18.21
2022-09-15T00:01:14.471Z,18.22
2022-09-15T00:02:16.851Z,18.23
2022-09-15T00:03:20.387Z,18.19
2022-09-15T00:04:22.704Z,18.20
2022-09-15T00:05:24.909Z,18.16
2022-09-15T00:06:27.362Z,18.13
2022-09-15T00:07:31.046Z,18.12
2022-09-15T00:08:33.771Z,18.10
2022-09-15T00:09:36.013Z,18.05
2022-09-15T00:10:38.531Z,18.09
2022-09-15T00:11:40.836Z,18.09
2022-09-15T00:12:43.153Z,18.10
2022-09-15T00:13:46.012Z,18.14
2022-09-15T00:14:48.564Z,18.04
2022-09-15T00:15:51.352Z,18.12
2022-09-15T00:16:53.653Z,18.09
2022-09-15T00:17:55.911Z,18.17
2022-09-15T00:18:59.241Z,18.15
2022-09-15T00:20:02.039Z,18.01
2022-09-15T00:21:10.633Z,18.08
2022-09-15T00:22:13.073Z,18.16
2022-09-15T00:23:16.301Z,18.20
2022-09-15T00:24:18.537Z,18.31
2022-09-15T00:25:20.772Z,18.28
2022-09-15T00:26:25.708Z,18.12
2022-09-15T00:27:27.962Z,18.04
2022-09-15T00:28:31.795Z,18.06
2022-09-15T00:29:35.762Z,18.00
2022-09-15T00:30:43.736Z,18.00
2022-09-15T00:31:45.978Z,18.07
2022-09-15T00:32:48.242Z,17.99
2022-09-15T00:33:52.681Z,17.99
2022-09-15T00:34:54.970Z,18.02
2022-09-15T00:36:00.729Z,18.01
2022-09-15T00:37:03.073Z,17.89
2022-09-15T00:38:06.640Z,17.77
2022-09-15T00:39:08.969Z,17.73
2022-09-15T00:40:11.334Z,17.77
2022-09-15T00:41:16.803Z,17.78
2022-09-15T00:42:22.138Z,17.88
2022-09-15T00:43:42.970Z,17.87
2022-09-15T00:44:46.943Z,17.88
2022-09-15T00:45:49.434Z,17.92
2022-09-15T00:47:15.257Z,17.92
2022-09-15T00:48:20.610Z,17.90
2022-09-15T00:49:30.699Z,17.89
2022-09-15T00:50:34.464Z,17.73
2022-09-15T00:51:58.025Z,17.65
2022-09-15T00:53:04.496Z,17.59
2022-09-15T00:54:17.441Z,17.55
2022-09-15T00:55:26.519Z,17.52
2022-09-15T00:56:30.631Z,17.46
2022-09-15T00:57:39.349Z,17.65
2022-09-15T00:58:50.759Z,17.72
2022-09-15T00:59:54.480Z,17.75
2022-09-15T01:01:00.695Z,17.80
2022-09-15T01:02:10.906Z,17.66
2022-09-15T01:03:13.892Z,17.58
2022-09-15T01:04:16.494Z,17.58
2022-09-15T01:05:25.571Z,17.56
2022-09-15T01:06:36.280Z,17.53
2022-09-15T01:07:59.379Z,17.53
2022-09-15T01:09:12.454Z,17.52
2022-09-15T01:10:25.724Z,17.60
2022-09-15T01:11:29.070Z,17.62
2022-09-15T01:12:31.452Z,17.60
2022-09-15T01:13:33.828Z,17.63
2022-09-15T01:14:36.121Z,17.65
2022-09-15T01:15:59.824Z,17.70
2022-09-15T01:17:22.167Z,17.49
2022-09-15T01:18:50.833Z,17.52
2022-09-15T01:20:17.825Z,17.52
2022-09-15T01:21:48.002Z,17.48
2022-09-15T01:23:12.694Z,17.48
2022-09-15T01:24:39.209Z,17.52
2022-09-15T01:26:06.162Z,17.51
2022-09-15T01:27:41.595Z,17.45
2022-09-15T01:29:05.201Z,17.50
2022-09-15T01:30:16.977Z,17.52
2022-09-15T01:31:29.439Z,17.51
2022-09-15T01:33:06.140Z,17.43
2022-09-15T01:34:17.773Z,17.53
2022-09-15T01:35:42.659Z,17.45
2022-09-15T01:36:55.692Z,17.47
2022-09-15T01:38:21.435Z,17.43
2022-09-15T01:39:27.425Z,17.45
2022-09-15T01:40:37.420Z,17.43
2022-09-15T01:41:50.788Z,17.37
2022-09-15T01:42:54.679Z,17.33
2022-09-15T01:44:07.971Z,17.28
2022-09-15T01:45:19.118Z,17.35
2022-09-15T01:46:24.547Z,17.31
2022-09-15T01:47:29.520Z,17.27
2022-09-15T01:48:34.771Z,17.23
2022-09-15T01:49:51.148Z,17.21
2022-09-15T01:50:57.886Z,17.23
2022-09-15T01:52:00.283Z,17.28
2022-09-15T01:53:05.854Z,17.31
2022-09-15T01:54:08.994Z,17.37
2022-09-15T01:55:18.115Z,17.53
2022-09-15T01:56:20.583Z,17.48
2022-09-15T01:57:23.457Z,17.41
2022-09-15T01:58:26.102Z,17.41
2022-09-15T01:59:28.609Z,17.49
2022-09-15T02:00:39.345Z,17.58
2022-09-15T02:01:51.673Z,17.59
2022-09-15T02:03:00.820Z,17.66
2022-09-15T02:04:41.764Z,17.67
2022-09-15T02:05:51.457Z,17.74
2022-09-15T02:07:07.190Z,17.78
2022-09-15T02:08:34.166Z,17.80
2022-09-15T02:09:58.677Z,17.81
2022-09-15T02:11:12.887Z,17.81
2022-09-15T02:12:33.999Z,17.84
2022-09-15T02:13:50.070Z,17.89
2022-09-15T02:15:08.591Z,17.92
2022-09-15T02:16:19.970Z,17.88
2022-09-15T02:17:24.055Z,17.76
2022-09-15T02:18:46.224Z,17.67
2022-09-15T02:19:54.470Z,17.63
2022-09-15T02:21:09.385Z,17.52
2022-09-15T02:22:34.616Z,17.51
2022-09-15T02:23:45.353Z,17.57
2022-09-15T02:24:57.804Z,17.49
2022-09-15T02:26:06.665Z,17.43
2022-09-15T02:27:15.452Z,17.41
2022-09-15T02:28:23.894Z,17.56
2022-09-15T02:29:27.648Z,17.56
2022-09-15T02:30:32.415Z,17.47
2022-09-15T02:31:39.377Z,17.59
2022-09-15T02:32:49.267Z,17.56
2022-09-15T02:33:57.542Z,17.59
2022-09-15T02:35:04.664Z,17.43
2022-09-15T02:36:08.779Z,17.55
2022-09-15T02:37:11.527Z,17.44
2022-09-15T02:38:15.074Z,17.45
2022-09-15T02:39:20.152Z,17.50
2022-09-15T02:40:23.375Z,17.55
2022-09-15T02:41:26.636Z,17.59
2022-09-15T02:42:31.848Z,17.55
2022-09-15T02:43:34.099Z,17.61
2022-09-15T02:44:36.382Z,17.67
2022-09-15T02:45:39.236Z,17.70
2022-09-15T02:46:41.671Z,17.81
2022-09-15T02:47:43.843Z,17.87
2022-09-15T02:48:46.481Z,17.81
2022-09-15T02:49:48.774Z,17.91
2022-09-15T02:50:51.498Z,17.87
2022-09-15T02:51:53.991Z,17.80
2022-09-15T02:52:56.270Z,17.89
2022-09-15T02:53:58.487Z,17.93
2022-09-15T02:55:01.096Z,17.92
2022-09-15T02:56:06.456Z,17.89
2022-09-15T02:57:09.288Z,17.83
2022-09-15T02:58:11.457Z,17.98
2022-09-15T02:59:14.457Z,17.92
2022-09-15T03:00:19.979Z,17.91
2022-09-15T03:01:31.714Z,17.93
2022-09-15T03:02:33.938Z,17.95
2022-09-15T03:03:39.843Z,17.89
2022-09-15T03:04:44.612Z,17.80
2022-09-15T03:05:46.836Z,17.89
2022-09-15T03:06:49.062Z,17.98
2022-09-15T03:07:51.478Z,17.96
2022-09-15T03:08:56.468Z,18.01
2022-09-15T03:09:58.697Z,18.01
2022-09-15T03:11:00.898Z,18.03
2022-09-15T03:12:03.091Z,18.08
2022-09-15T03:13:05.367Z,18.15
2022-09-15T03:14:08.202Z,18.18
2022-09-15T03:15:11.794Z,18.22
2022-09-15T03:16:16.190Z,18.18
2022-09-15T03:17:18.897Z,18.16
2022-09-15T03:18:21.059Z,18.19
2022-09-15T03:19:23.361Z,18.18
2022-09-15T03:20:28.547Z,18.24
2022-09-15T03:21:31.473Z,18.10
2022-09-15T03:22:34.390Z,18.13
2022-09-15T03:23:37.200Z,18.13
2022-09-15T03:24:39.478Z,18.07
2022-09-15T03:25:41.653Z,18.09
2022-09-15T03:26:43.908Z,18.11
2022-09-15T03:27:46.745Z,18.10
2022-09-15T03:28:48.924Z,18.00
2022-09-15T03:29:51.230Z,18.13
2022-09-15T03:30:53.980Z,18.10
2022-09-15T03:31:56.421Z,18.17
2022-09-15T03:32:58.647Z,18.21
2022-09-15T03:34:00.839Z,18.20
2022-09-15T03:35:04.521Z,18.29
2022-09-15T03:36:07.067Z,18.20
2022-09-15T03:37:09.357Z,18.14
2022-09-15T03:38:11.622Z,18.16
2022-09-15T03:39:14.215Z,18.16
2022-09-15T03:40:16.894Z,18.17
2022-09-15T03:41:19.158Z,18.13
2022-09-15T03:42:21.622Z,18.15
2022-09-15T03:43:24.220Z,18.13
2022-09-15T03:44:26.509Z,18.16
2022-09-15T03:45:28.809Z,18.15
2022-09-15T03:46:31.279Z,18.23
2022-09-15T03:47:33.498Z,18.09
2022-09-15T03:48:36.342Z,18.14
2022-09-15T03:49:38.853Z,18.09
2022-09-15T03:50:41.045Z,18.18
2022-09-15T03:51:43.467Z,18.21
2022-09-15T03:52:46.431Z,18.21
2022-09-15T03:53:48.806Z,18.32
2022-09-15T03:54:50.979Z,18.19
2022-09-15T03:55:53.617Z,18.09
2022-09-15T03:56:55.817Z,18.10
2022-09-15T03:57:58.047Z,18.16
2022-09-15T03:59:01.806Z,18.14
2022-09-15T04:00:07.582Z,17.92
2022-09-15T04:01:09.879Z,17.95
2022-09-15T04:02:12.149Z,17.99
2022-09-15T04:03:14.660Z,18.05
2022-09-15T04:04:17.842Z,18.01
2022-09-15T04:05:20.196Z,17.83
2022-09-15T04:06:23.572Z,17.83
2022-09-15T04:07:26.162Z,17.79
2022-09-15T04:08:28.418Z,17.94
2022-09-15T04:09:31.319Z,17.87
2022-09-15T04:10:33.598Z,17.86
2022-09-15T04:11:35.997Z,17.78
2022-09-15T04:12:38.322Z,17.75
2022-09-15T04:13:41.974Z,17.89
2022-09-15T04:14:44.250Z,17.80
2022-09-15T04:15:46.475Z,17.82
2022-09-15T04:16:48.779Z,17.83
2022-09-15T04:17:51.019Z,17.83
2022-09-15T04:18:55.104Z,17.91
2022-09-15T04:19:57.729Z,17.96
2022-09-15T04:21:01.866Z,17.94
2022-09-15T04:22:04.201Z,17.88
2022-09-15T04:23:06.443Z,17.91
2022-09-15T04:24:08.652Z,17.97
2022-09-15T04:25:11.109Z,17.82
2022-09-15T04:26:17.011Z,17.85
2022-09-15T04:27:19.302Z,17.86
2022-09-15T04:28:21.823Z,17.84
2022-09-15T04:29:24.856Z,17.82
2022-09-15T04:30:27.024Z,17.85
2022-09-15T04:31:29.375Z,17.78
2022-09-15T04:32:32.147Z,17.82
2022-09-15T04:33:35.060Z,17.83
2022-09-15T04:34:41.263Z,17.80
2022-09-15T04:35:43.843Z,17.77
2022-09-15T04:36:46.593Z,17.69
2022-09-15T04:37:49.018Z,17.83
2022-09-15T04:38:51.594Z,17.94
2022-09-15T04:39:54.052Z,17.78
2022-09-15T04:40:56.355Z,17.71
2022-09-15T04:41:58.635Z,17.84
2022-09-15T04:43:01.077Z,17.69
2022-09-15T04:44:03.598Z,17.65
2022-09-15T04:45:07.151Z,17.71
2022-09-15T04:46:10.753Z,17.72
2022-09-15T04:47:13.296Z,17.65
2022-09-15T04:48:15.506Z,17.57
2022-09-15T04:49:17.844Z,17.53
2022-09-15T04:50:20.291Z,17.52
2022-09-15T04:51:23.771Z,17.60
2022-09-15T04:52:26.260Z,17.63
2022-09-15T04:53:28.797Z,17.66
2022-09-15T04:54:31.786Z,17.57
2022-09-15T04:55:34.860Z,17.58
2022-09-15T04:56:38.422Z,17.61
2022-09-15T04:57:40.630Z,17.61
2022-09-15T04:58:45.304Z,17.61
2022-09-15T04:59:47.825Z,17.63
2022-09-15T05:00:50.134Z,17.66
2022-09-15T05:01:55.553Z,17.61
2022-09-15T05:02:59.400Z,17.62
2022-09-15T05:04:06.317Z,17.60
2022-09-15T05:05:08.610Z,17.70
2022-09-15T05:06:12.564Z,17.61
2022-09-15T05:07:14.751Z,17.60
2022-09-15T05:08:17.034Z,17.59
2022-09-15T05:09:19.264Z,17.62
2022-09-15T05:10:21.778Z,17.58
2022-09-15T05:11:25.196Z,17.58
2022-09-15T05:12:27.827Z,17.54
2022-09-15T05:13:47.898Z,17.51
2022-09-15T05:14:50.137Z,17.61
2022-09-15T05:15:52.451Z,17.57
2022-09-15T05:16:54.761Z,17.59
2022-09-15T05:17:58.277Z,17.53
2022-09-15T05:19:02.884Z,17.53
2022-09-15T05:20:05.609Z,17.67
2022-09-15T05:21:09.846Z,17.60
2022-09-15T05:22:12.199Z,17.63
2022-09-15T05:23:14.437Z,17.51
2022-09-15T05:24:16.757Z,17.55
2022-09-15T05:25:18.971Z,17.51
2022-09-15T05:26:26.921Z,17.50
2022-09-15T05:27:32.704Z,17.54
2022-09-15T05:28:37.098Z,17.45
2022-09-15T05:29:39.318Z,17.47
2022-09-15T05:30:44.390Z,17.38
2022-09-15T05:31:47.108Z,17.43
2022-09-15T05:32:49.534Z,17.45
2022-09-15T05:33:53.064Z,17.38
2022-09-15T05:34:55.400Z,17.27
2022-09-15T05:35:59.724Z,17.31
2022-09-15T05:37:02.419Z,17.36
2022-09-15T05:38:04.716Z,17.42
2022-09-15T05:39:07.024Z,17.34
2022-09-15T05:40:09.961Z,17.45
2022-09-15T05:41:17.492Z,17.37
2022-09-15T05:42:19.837Z,17.32
2022-09-15T05:43:22.148Z,17.25
2022-09-15T05:44:24.374Z,17.32
2022-09-15T05:45:26.702Z,17.34
2022-09-15T05:46:30.001Z,17.42
2022-09-15T05:47:32.353Z,17.41
2022-09-15T05:48:34.888Z,17.33
2022-09-15T05:49:37.229Z,17.40
2022-09-15T05:50:48.288Z,17.46
2022-09-15T05:51:50.672Z,17.42
2022-09-15T05:52:52.981Z,17.39
2022-09-15T05:53:55.923Z,17.48
2022-09-15T05:54:59.391Z,17.55
2022-09-15T05:56:06.081Z,17.45
2022-09-15T05:57:08.456Z,17.50
2022-09-15T05:58:11.092Z,17.53
2022-09-15T05:59:13.540Z,17.48
2022-09-15T06:00:16.037Z,17.54
2022-09-15T06:01:20.576Z,17.47
2022-09-15T06:02:22.882Z,17.55
2022-09-15T06:03:30.021Z,17.57
2022-09-15T06:04:34.115Z,17.52
2022-09-15T06:05:36.390Z,17.54
2022-09-15T06:06:38.695Z,17.59
2022-09-15T06:07:43.956Z,17.61
2022-09-15T06:08:52.806Z,17.46
2022-09-15T06:09:57.795Z,17.55
2022-09-15T06:11:06.006Z,17.57
2022-09-15T06:12:08.309Z,17.56
2022-09-15T06:13:10.548Z,17.65
2022-09-15T06:14:13.544Z,17.63
2022-09-15T06:15:16.171Z,17.55
2022-09-15T06:16:25.140Z,17.52
2022-09-15T06:17:27.535Z,17.46
2022-09-15T06:18:29.827Z,17.49
2022-09-15T06:19:33.366Z,17.45
2022-09-15T06:20:35.671Z,17.61
2022-09-15T06:21:38.096Z,17.59
2022-09-15T06:22:40.462Z,17.51
2022-09-15T06:23:47.159Z,17.56
2022-09-15T06:24:52.970Z,17.48
2022-09-15T06:25:55.383Z,17.37
2022-09-15T06:26:57.655Z,17.49
2022-09-15T06:27:59.931Z,17.48
2022-09-15T06:29:04.968Z,17.47
2022-09-15T06:30:09.381Z,17.55
2022-09-15T06:31:13.070Z,17.48
2022-09-15T06:32:15.414Z,17.41
2022-09-15T06:33:17.675Z,17.47
2022-09-15T06:34:19.944Z,17.33
2022-09-15T06:35:22.138Z,17.45
2022-09-15T06:36:27.222Z,17.47
2022-09-15T06:37:30.104Z,17.40
2022-09-15T06:38:32.377Z,17.41
2022-09-15T06:39:35.156Z,17.43
2022-09-15T06:40:37.430Z,17.48
2022-09-15T06:42:00.778Z,17.52
2022-09-15T06:43:04.240Z,17.53
2022-09-15T06:44:06.596Z,17.49
2022-09-15T06:45:09.244Z,17.56
2022-09-15T06:46:18.202Z,17.55
2022-09-15T06:47:20.573Z,17.58
2022-09-15T06:48:25.253Z,17.45
2022-09-15T06:49:28.651Z,17.47
2022-09-15T06:50:30.983Z,17.48
2022-09-15T06:51:35.649Z,17.52
2022-09-15T06:52:38.011Z,17.53
2022-09-15T06:53:40.560Z,17.39
2022-09-15T06:54:42.890Z,17.36
2022-09-15T06:55:45.142Z,17.30
2022-09-15T06:56:47.440Z,17.37
2022-09-15T06:57:49.918Z,17.41
2022-09-15T06:58:52.558Z,17.40
2022-09-15T06:59:54.945Z,17.51
2022-09-15T07:01:02.352Z,17.43
2022-09-15T07:02:05.417Z,17.39
2022-09-15T07:03:07.978Z,17.34
2022-09-15T07:04:10.921Z,17.38
2022-09-15T07:05:13.295Z,17.52
2022-09-15T07:06:16.289Z,17.40
2022-09-15T07:07:18.641Z,17.49
2022-09-15T07:08:21.103Z,17.46
2022-09-15T07:09:23.375Z,17.37
2022-09-15T07:10:25.775Z,17.44
2022-09-15T07:11:28.627Z,17.39
2022-09-15T07:12:32.443Z,17.39
2022-09-15T07:13:34.925Z,17.42
2022-09-15T07:14:37.371Z,17.28
2022-09-15T07:15:39.779Z,17.44
2022-09-15T07:16:42.242Z,17.42
2022-09-15T07:17:44.727Z,17.40
2022-09-15T07:18:48.251Z,17.46
2022-09-15T07:19:50.535Z,17.40
2022-09-15T07:20:57.991Z,17.33
2022-09-15T07:22:00.328Z,17.43
2022-09-15T07:23:03.391Z,17.58
2022-09-15T07:24:07.551Z,17.46
2022-09-15T07:25:10.062Z,17.57
2022-09-15T07:26:18.027Z,17.64
2022-09-15T07:27:22.375Z,17.59
2022-09-15T07:28:24.713Z,17.58
2022-09-15T07:29:29.959Z,17.41
2022-09-15T07:30:32.333Z,17.24
2022-09-15T07:31:36.834Z,16.96
2022-09-15T07:32:40.013Z,16.84
2022-09-15T07:33:42.753Z,16.65
2022-09-15T07:34:45.371Z,16.57
2022-09-15T07:35:47.689Z,16.61
2022-09-15T07:36:49.987Z,16.56
2022-09-15T07:37:52.446Z,16.60
2022-09-15T07:38:54.726Z,16.54
2022-09-15T07:39:57.023Z,16.51
2022-09-15T07:41:07.285Z,16.41
2022-09-15T07:42:09.593Z,16.40
2022-09-15T07:43:12.357Z,16.37
2022-09-15T07:44:14.857Z,16.23
2022-09-15T07:45:17.352Z,16.17
2022-09-15T07:46:21.762Z,16.28
2022-09-15T07:47:24.097Z,16.20
2022-09-15T07:48:26.732Z,16.15
2022-09-15T07:49:29.133Z,16.26
2022-09-15T07:50:31.517Z,16.20
2022-09-15T07:51:33.940Z,16.08
2022-09-15T07:52:36.296Z,16.15
2022-09-15T07:53:38.607Z,16.27
2022-09-15T07:54:40.967Z,16.31
2022-09-15T07:55:43.388Z,16.38
2022-09-15T07:56:45.885Z,16.27
2022-09-15T07:57:55.909Z,16.29
2022-09-15T07:58:58.463Z,16.28
2022-09-15T08:00:00.976Z,16.28
2022-09-15T08:01:08.948Z,16.28
2022-09-15T08:02:19.827Z,16.36
2022-09-15T08:03:22.245Z,16.35
2022-09-15T08:04:24.571Z,16.34
2022-09-15T08:05:28.478Z,16.35
2022-09-15T08:06:30.821Z,16.34
2022-09-15T08:07:33.253Z,16.31
2022-09-15T08:08:38.593Z,16.24
2022-09-15T08:09:41.064Z,16.24
2022-09-15T08:10:43.469Z,16.31
2022-09-15T08:11:45.821Z,16.35
2022-09-15T08:12:48.344Z,16.29
2022-09-15T08:13:52.331Z,16.26
2022-09-15T08:14:54.701Z,16.33
2022-09-15T08:15:57.165Z,16.25
2022-09-15T08:17:01.176Z,16.20
2022-09-15T08:18:03.894Z,16.22
2022-09-15T08:19:06.478Z,16.31
2022-09-15T08:20:09.264Z,16.32
2022-09-15T08:21:15.162Z,16.40
2022-09-15T08:22:17.500Z,16.39
2022-09-15T08:23:19.845Z,16.33
2022-09-15T08:24:22.735Z,16.30
2022-09-15T08:25:25.196Z,16.32
2022-09-15T08:26:29.358Z,16.13
2022-09-15T08:27:31.989Z,16.18
2022-09-15T08:28:34.692Z,16.15
2022-09-15T08:29:37.008Z,16.16
2022-09-15T08:30:39.487Z,16.20
2022-09-15T08:31:41.902Z,16.19
2022-09-15T08:32:44.650Z,16.22
2022-09-15T08:33:51.924Z,16.21
2022-09-15T08:34:54.440Z,16.13
2022-09-15T08:36:05.705Z,16.23
2022-09-15T08:37:08.088Z,16.19
2022-09-15T08:38:11.147Z,16.24
2022-09-15T08:39:13.641Z,16.33
2022-09-15T08:40:20.493Z,16.33
2022-09-15T08:42:03.025Z,16.32
2022-09-15T08:43:15.396Z,16.17
2022-09-15T08:44:17.750Z,16.22
2022-09-15T08:45:27.900Z,16.20
2022-09-15T08:46:41.258Z,16.23
2022-09-15T08:47:46.538Z,16.23
2022-09-15T08:49:02.747Z,16.19
2022-09-15T08:50:31.037Z,16.08
2022-09-15T08:51:44.832Z,15.99
2022-09-15T08:53:02.549Z,16.11
2022-09-15T08:54:12.653Z,16.00
2022-09-15T08:55:23.588Z,15.95
2022-09-15T08:56:28.920Z,15.97
2022-09-15T08:57:31.343Z,15.94
2022-09-15T08:58:37.587Z,15.96
2022-09-15T08:59:40.048Z,15.90
2022-09-15T09:00:45.630Z,15.94
2022-09-15T09:01:56.938Z,15.92
2022-09-15T09:03:33.648Z,15.84
2022-09-15T09:04:48.047Z,15.72
2022-09-15T09:06:11.951Z,15.78
2022-09-15T09:07:46.317Z,15.84
2022-09-15T09:09:15.352Z,15.90
2022-09-15T09:10:31.736Z,15.85
2022-09-15T09:12:02.123Z,15.67
2022-09-15T09:13:20.204Z,15.41
2022-09-15T09:14:51.543Z,15.55
2022-09-15T09:16:20.149Z,15.56
2022-09-15T09:17:41.196Z,15.50
2022-09-15T09:19:28.953Z,15.30
2022-09-15T09:20:58.761Z,15.41
2022-09-15T09:22:09.589Z,15.33
2022-09-15T09:23:15.322Z,15.39
2022-09-15T09:24:33.352Z,15.44
2022-09-15T09:25:36.654Z,15.41
2022-09-15T09:26:39.835Z,15.45
2022-09-15T09:27:42.417Z,15.57
2022-09-15T09:28:47.450Z,15.54
2022-09-15T09:29:57.523Z,15.55
2022-09-15T09:31:07.925Z,15.64
2022-09-15T09:32:32.467Z,15.68
2022-09-15T09:33:47.290Z,15.50
2022-09-15T09:35:12.331Z,15.62
2022-09-15T09:36:14.964Z,15.65
2022-09-15T09:37:17.382Z,15.67
2022-09-15T09:38:28.511Z,15.69
2022-09-15T09:39:30.823Z,15.69
2022-09-15T09:40:33.672Z,15.46
2022-09-15T09:41:36.372Z,15.50
2022-09-15T09:42:39.603Z,15.49
2022-09-15T09:43:47.629Z,15.49
2022-09-15T09:44:50.661Z,15.56
2022-09-15T09:45:53.330Z,15.68
2022-09-15T09:46:55.546Z,15.75
2022-09-15T09:48:09.169Z,15.77
2022-09-15T09:49:18.594Z,15.72
2022-09-15T09:50:38.920Z,15.59
2022-09-15T09:51:54.035Z,15.64
2022-09-15T09:52:56.386Z,15.69
2022-09-15T09:54:09.761Z,15.77
2022-09-15T09:55:23.539Z,15.78
2022-09-15T09:56:27.187Z,15.73
2022-09-15T09:57:40.000Z,15.63
2022-09-15T09:58:43.274Z,15.63
2022-09-15T09:59:50.029Z,15.55
2022-09-15T10:00:52.960Z,15.55
2022-09-15T10:02:11.132Z,15.47
2022-09-15T10:03:30.645Z,15.58
2022-09-15T10:04:35.097Z,15.42
2022-09-15T10:05:37.565Z,15.50
2022-09-15T10:06:40.879Z,15.55
2022-09-15T10:07:46.414Z,15.57
2022-09-15T10:09:05.284Z,15.57
2022-09-15T10:10:21.946Z,15.53
2022-09-15T10:11:53.060Z,15.57
2022-09-15T10:12:56.537Z,15.50
2022-09-15T10:13:58.769Z,15.55
2022-09-15T10:15:04.817Z,15.57
2022-09-15T10:16:07.101Z,15.59
2022-09-15T10:17:16.624Z,15.55
2022-09-15T10:18:39.238Z,15.49
2022-09-15T10:19:58.686Z,15.47
2022-09-15T10:21:08.365Z,15.45
2022-09-15T10:22:22.222Z,15.56
2022-09-15T10:23:32.299Z,15.58
2022-09-15T10:24:38.828Z,15.58
2022-09-15T10:25:59.538Z,15.54
2022-09-15T10:27:17.384Z,15.49
2022-09-15T10:28:23.065Z,15.51
2022-09-15T10:29:25.311Z,15.57
2022-09-15T10:30:27.787Z,15.56
2022-09-15T10:31:32.857Z,15.49
2022-09-15T10:32:35.148Z,15.48
2022-09-15T10:33:40.317Z,15.48
2022-09-15T10:34:43.986Z,15.50
2022-09-15T10:35:46.621Z,15.64
2022-09-15T10:36:49.232Z,15.67
2022-09-15T10:38:11.360Z,15.60
2022-09-15T10:39:48.307Z,15.61
2022-09-15T10:41:18.072Z,15.77
2022-09-15T10:42:33.788Z,15.81
2022-09-15T10:43:48.081Z,15.28
2022-09-15T10:45:08.921Z,15.64
2022-09-15T10:46:24.150Z,15.80
2022-09-15T10:47:47.739Z,15.66
2022-09-15T10:49:11.610Z,15.85
2022-09-15T10:50:25.191Z,15.93
2022-09-15T10:52:04.785Z,15.95
2022-09-15T10:53:28.614Z,16.05
2022-09-15T10:54:46.251Z,15.99
2022-09-15T10:56:00.404Z,15.86
2022-09-15T10:57:31.116Z,15.97
2022-09-15T10:58:56.681Z,16.10
2022-09-15T11:00:17.565Z,16.14
2022-09-15T11:01:29.442Z,16.22
2022-09-15T11:02:49.668Z,16.21
2022-09-15T11:03:51.883Z,16.21
2022-09-15T11:05:31.468Z,16.25
2022-09-15T11:06:51.717Z,16.42
2022-09-15T11:08:26.714Z,16.21
2022-09-15T11:09:44.535Z,16.44
2022-09-15T11:11:00.568Z,16.33
2022-09-15T11:12:25.906Z,16.46
2022-09-15T11:13:56.736Z,16.42
2022-09-15T11:15:14.489Z,16.47
2022-09-15T11:16:33.703Z,16.29
2022-09-15T11:18:18.249Z,16.40
2022-09-15T11:19:42.314Z,15.94
2022-09-15T11:21:13.644Z,15.94
2022-09-15T11:22:31.587Z,16.11
2022-09-15T11:23:40.208Z,16.03
2022-09-15T11:24:58.631Z,16.12
2022-09-15T11:26:19.551Z,16.48
2022-09-15T11:27:39.640Z,16.55
2022-09-15T11:28:53.896Z,16.82
2022-09-15T11:30:07.690Z,17.11
2022-09-15T11:31:21.786Z,16.98
2022-09-15T11:32:32.969Z,16.98
2022-09-15T11:33:45.251Z,17.08
2022-09-15T11:34:53.895Z,16.68
2022-09-15T11:36:08.953Z,16.57
2022-09-15T11:37:20.543Z,16.89
2022-09-15T11:38:24.010Z,16.99
2022-09-15T11:39:35.268Z,16.96
2022-09-15T11:40:59.361Z,17.10
2022-09-15T11:42:12.906Z,17.10
2022-09-15T11:43:28.821Z,17.02
2022-09-15T11:44:34.584Z,16.68
2022-09-15T11:45:45.366Z,16.48
2022-09-15T11:47:23.071Z,16.30
2022-09-15T11:48:35.272Z,16.26
2022-09-15T11:50:11.335Z,16.44
2022-09-15T11:51:18.780Z,16.25
2022-09-15T11:52:36.238Z,16.56
2022-09-15T11:53:53.094Z,16.73
2022-09-15T11:55:05.309Z,16.81
2022-09-15T11:56:29.674Z,16.91
2022-09-15T11:57:43.555Z,16.63
2022-09-15T11:59:04.892Z,16.36
2022-09-15T12:00:15.170Z,16.64
2022-09-15T12:01:21.202Z,16.54
2022-09-15T12:02:35.026Z,16.76
2022-09-15T12:03:52.796Z,16.73
2022-09-15T12:05:17.583Z,16.91
2022-09-15T12:06:46.274Z,16.91
2022-09-15T12:07:55.525Z,17.06
2022-09-15T12:09:06.213Z,17.24
2022-09-15T12:10:20.453Z,17.26
2022-09-15T12:11:26.184Z,17.23
2022-09-15T12:12:30.738Z,17.69
2022-09-15T12:13:34.384Z,17.80
2022-09-15T12:14:44.420Z,17.75
2022-09-15T12:15:48.416Z,17.36
2022-09-15T12:16:51.729Z,17.44
2022-09-15T12:17:54.005Z,17.54
2022-09-15T12:19:03.510Z,17.28
2022-09-15T12:20:05.778Z,17.26
2022-09-15T12:21:30.500Z,17.17
2022-09-15T12:22:42.703Z,17.19
2022-09-15T12:23:56.380Z,17.30
2022-09-15T12:25:20.297Z,17.29
2022-09-15T12:26:24.976Z,17.17
2022-09-15T12:27:27.415Z,17.00
2022-09-15T12:28:50.971Z,16.68
2022-09-15T12:29:55.710Z,16.75
2022-09-15T12:31:22.624Z,16.66
2022-09-15T12:32:28.913Z,16.77
2022-09-15T12:33:43.222Z,17.02
2022-09-15T12:35:05.056Z,17.29
2022-09-15T12:36:40.096Z,17.38
2022-09-15T12:37:46.341Z,17.28
2022-09-15T12:38:49.371Z,17.23
2022-09-15T12:39:53.879Z,17.22
2022-09-15T12:40:59.006Z,17.21
2022-09-15T12:42:01.210Z,17.23
2022-09-15T12:43:18.815Z,17.14
2022-09-15T12:44:32.187Z,17.20
2022-09-15T12:45:38.639Z,17.29
2022-09-15T12:46:41.471Z,16.96
2022-09-15T12:47:55.211Z,16.95
2022-09-15T12:49:02.239Z,16.71
2022-09-15T12:50:16.782Z,16.73
2022-09-15T12:51:25.899Z,16.91
2022-09-15T12:52:29.036Z,17.11
2022-09-15T12:53:37.320Z,17.14
2022-09-15T12:54:45.229Z,17.12
2022-09-15T12:55:57.202Z,17.08
2022-09-15T12:57:01.231Z,17.14
2022-09-15T12:58:09.620Z,17.16
2022-09-15T12:59:15.006Z,17.15
2022-09-15T13:00:20.075Z,17.16
2022-09-15T13:01:22.746Z,17.33
2022-09-15T13:02:45.558Z,17.18
2022-09-15T13:03:50.821Z,17.26
2022-09-15T13:04:54.645Z,17.53
2022-09-15T13:06:18.459Z,17.88
2022-09-15T13:07:22.394Z,18.33
2022-09-15T13:08:24.723Z,18.77
2022-09-15T13:09:28.742Z,18.70
2022-09-15T13:10:35.511Z,18.38
2022-09-15T13:11:42.079Z,18.37
2022-09-15T13:12:54.393Z,18.67
2022-09-15T13:14:11.226Z,18.93
2022-09-15T13:15:16.276Z,19.27
2022-09-15T13:16:26.723Z,19.43
2022-09-15T13:17:30.115Z,19.54
2022-09-15T13:18:33.737Z,19.77
2022-09-15T13:19:36.039Z,19.86
2022-09-15T13:20:48.471Z,19.57
2022-09-15T13:22:09.215Z,19.19
2022-09-15T13:23:14.296Z,19.73
2022-09-15T13:24:32.610Z,20.00
2022-09-15T13:25:36.167Z,19.78
2022-09-15T13:26:38.866Z,19.68
2022-09-15T13:27:45.693Z,20.10
2022-09-15T13:28:51.491Z,19.45
2022-09-15T13:30:09.600Z,19.66
2022-09-15T13:31:11.996Z,19.85
2022-09-15T13:32:37.701Z,19.94
2022-09-15T13:35:23.586Z,20.04
2022-09-15T13:38:24.914Z,19.72
2022-09-15T13:39:53.262Z,19.88
2022-09-15T13:41:24.663Z,19.52
2022-09-15T13:42:48.997Z,19.62
2022-09-15T13:44:19.347Z,19.99
2022-09-15T13:45:42.710Z,20.31
2022-09-15T13:47:20.990Z,20.25
2022-09-15T13:48:55.353Z,20.58
2022-09-15T13:50:20.500Z,20.43
2022-09-15T13:51:28.953Z,20.44
2022-09-15T13:52:58.490Z,20.23
2022-09-15T13:54:15.333Z,20.64
2022-09-15T13:55:26.337Z,20.35
2022-09-15T13:56:32.348Z,20.40
2022-09-15T13:59:10.326Z,19.78
2022-09-15T14:00:22.817Z,20.09
2022-09-15T14:01:25.829Z,20.10
2022-09-15T14:02:29.235Z,20.42
2022-09-15T14:03:39.288Z,20.72
2022-09-15T14:04:41.656Z,20.58
2022-09-15T14:05:45.380Z,20.79
2022-09-15T14:06:51.260Z,20.89
2022-09-15T14:08:19.391Z,20.33
2022-09-15T14:09:31.310Z,20.19
2022-09-15T14:10:41.917Z,20.42
2022-09-15T14:11:48.883Z,20.40
2022-09-15T14:12:51.894Z,20.28
2022-09-15T14:13:55.851Z,20.69
2022-09-15T14:15:03.047Z,20.87
2022-09-15T14:16:12.571Z,20.73
2022-09-15T14:17:23.916Z,20.59
2022-09-15T14:18:26.655Z,20.48
2022-09-15T14:19:33.473Z,20.51
2022-09-15T14:20:35.862Z,20.04
2022-09-15T14:21:48.980Z,19.91
2022-09-15T14:22:51.724Z,20.30
2022-09-15T14:23:57.393Z,20.39
2022-09-15T14:25:08.885Z,20.27
2022-09-15T14:26:14.586Z,20.40
2022-09-15T14:27:22.402Z,20.65
2022-09-15T14:28:33.357Z,20.73
2022-09-15T14:29:40.728Z,20.90
2022-09-15T14:30:47.724Z,20.78
2022-09-15T14:31:50.404Z,20.11
2022-09-15T14:32:56.871Z,20.31
2022-09-15T14:34:00.579Z,20.18
2022-09-15T14:35:07.499Z,20.15
2022-09-15T14:36:25.443Z,19.85
2022-09-15T14:37:31.649Z,19.57
2022-09-15T14:38:34.171Z,19.50
2022-09-15T14:39:38.036Z,19.37
2022-09-15T14:40:41.311Z,19.10
2022-09-15T14:41:43.876Z,18.98